Time;durP1;ratioP1;P1;durP2;ratioP2;P2;SDS_P1;SDS_P2;PMS_P1;PMS_P2;Temp;Humidity;BMP_temperature;BMP_pressure;BME280_temperature;BME280_humidity;BME280_pressure;Samples;Min_cycle;Max_cycle;Signal;HPM_P1;HPM_P2
2023/05/01 00:00:40;;;;;;;4.07;1.83;;;9.00;99.90;;;;;;7302411;32;20549;-55
2023/05/01 00:04:42;;;;;;;5.65;2.08;;;8.80;99.90;;;;;;7310821;32;20126;-55
2023/05/01 00:08:44;;;;;;;5.35;1.95;;;8.70;99.90;;;;;;7298982;32;20108;-55
2023/05/01 00:12:46;;;;;;;5.43;1.83;;;8.60;99.90;;;;;;7301219;32;20123;-55
2023/05/01 00:16:48;;;;;;;4.97;1.83;;;8.60;99.90;;;;;;7297833;32;20128;-55
2023/05/01 00:20:50;;;;;;;3.85;1.98;;;8.50;99.90;;;;;;7300054;32;20631;-55
2023/05/01 00:24:52;;;;;;;4.53;2.03;;;8.30;99.90;;;;;;7302675;32;20487;-55
2023/05/01 00:28:53;;;;;;;4.90;1.50;;;8.20;99.90;;;;;;7306099;32;20432;-55
2023/05/01 00:32:55;;;;;;;3.40;1.90;;;8.10;99.90;;;;;;7298473;32;20746;-55
2023/05/01 00:36:57;;;;;;;6.10;1.85;;;8.10;99.90;;;;;;7303163;32;20225;-55
2023/05/01 00:40:59;;;;;;;5.15;1.83;;;8.00;99.90;;;;;;7304538;32;20138;-56
2023/05/01 00:45:01;;;;;;;8.90;1.87;;;7.90;99.90;;;;;;7307330;32;20229;-56
2023/05/01 00:49:03;;;;;;;8.52;2.28;;;7.80;99.90;;;;;;7290029;32;20491;-55
2023/05/01 00:53:04;;;;;;;5.72;1.92;;;7.70;99.90;;;;;;7306706;32;20124;-55
2023/05/01 00:57:08;;;;;;;5.43;1.60;;;7.70;99.90;;;;;;7300096;32;20122;-55
2023/05/01 01:01:11;;;;;;;7.30;2.00;;;7.60;99.90;;;;;;7299379;32;20143;-54
2023/05/01 01:05:12;;;;;;;7.03;2.08;;;7.50;99.90;;;;;;7307904;32;20123;-55
2023/05/01 01:09:39;;;;;;;7.90;2.22;;;7.40;99.90;;;;;;7290172;32;20549;-55
2023/05/01 01:13:50;;;;;;;4.37;2.00;;;7.40;99.90;;;;;;7309048;32;20319;-55
2023/05/01 01:18:06;;;;;;;5.93;1.87;;;7.30;99.90;;;;;;7304154;32;20246;-55
2023/05/01 01:22:14;;;;;;;3.55;1.98;;;7.20;99.90;;;;;;7304075;32;20096;-55
2023/05/01 01:26:53;;;;;;;6.15;2.05;;;7.20;99.90;;;;;;7306881;32;20508;-55
2023/05/01 01:31:07;;;;;;;10.05;2.50;;;7.20;99.90;;;;;;7307941;32;20100;-56
2023/05/01 01:35:18;;;;;;;3.53;1.95;;;7.10;99.90;;;;;;7309571;32;20203;-55
2023/05/01 01:39:28;;;;;;;4.62;2.20;;;7.10;99.90;;;;;;7314956;32;20102;-55
2023/05/01 01:43:36;;;;;;;4.05;1.77;;;7.00;99.90;;;;;;7310067;32;20320;-55
2023/05/01 01:47:40;;;;;;;5.30;2.60;;;7.00;99.90;;;;;;7305453;32;20112;-55
2023/05/01 01:51:45;;;;;;;3.97;2.40;;;6.90;99.90;;;;;;7308166;32;20153;-55
2023/05/01 01:55:49;;;;;;;5.03;1.90;;;6.90;99.90;;;;;;7305490;32;20107;-54
2023/05/01 01:59:50;;;;;;;3.62;1.98;;;6.90;99.90;;;;;;7304500;32;20227;-55
2023/05/01 02:03:54;;;;;;;5.68;2.42;;;6.90;99.90;;;;;;7314079;32;20123;-54
2023/05/01 02:07:57;;;;;;;3.35;1.83;;;6.90;99.90;;;;;;7309466;32;20637;-54
2023/05/01 02:12:01;;;;;;;6.20;1.92;;;6.80;99.90;;;;;;7300154;32;20149;-55
2023/05/01 02:16:05;;;;;;;4.93;2.05;;;6.90;99.90;;;;;;7308008;32;20546;-55
2023/05/01 02:20:11;;;;;;;3.60;2.20;;;6.90;99.90;;;;;;7303231;32;20404;-55
2023/05/01 02:24:13;;;;;;;4.70;2.15;;;6.90;99.90;;;;;;7312290;32;20475;-54
2023/05/01 02:28:21;;;;;;;7.32;1.70;;;6.90;99.90;;;;;;7301765;32;20195;-55
2023/05/01 02:32:23;;;;;;;3.08;2.03;;;6.90;99.90;;;;;;7293575;32;20190;-55
2023/05/01 02:36:26;;;;;;;5.28;2.33;;;6.80;99.90;;;;;;7291404;32;20211;-55
2023/05/01 02:40:30;;;;;;;5.43;2.05;;;6.90;99.90;;;;;;7300141;32;20112;-54
2023/05/01 02:44:39;;;;;;;3.12;1.58;;;6.80;99.90;;;;;;7299117;32;20135;-55
2023/05/01 02:48:41;;;;;;;3.30;2.10;;;6.90;99.90;;;;;;7304166;32;20174;-55
2023/05/01 02:52:45;;;;;;;3.33;1.92;;;6.90;99.90;;;;;;7301576;32;20176;-55
2023/05/01 02:56:46;;;;;;;7.32;2.78;;;6.90;99.90;;;;;;7302019;32;20468;-55
2023/05/01 03:00:49;;;;;;;2.78;1.90;;;6.90;99.90;;;;;;7302694;32;20131;-54
2023/05/01 03:04:51;;;;;;;3.08;1.95;;;6.90;99.90;;;;;;7304797;32;20123;-56
2023/05/01 03:08:52;;;;;;;5.00;1.85;;;6.90;99.90;;;;;;7301279;32;20187;-55
2023/05/01 03:12:54;;;;;;;4.15;1.73;;;7.00;99.90;;;;;;7301033;32;20242;-54
2023/05/01 03:16:57;;;;;;;3.80;2.00;;;7.10;99.90;;;;;;7299518;32;20173;-55
2023/05/01 03:20:58;;;;;;;5.85;2.25;;;7.20;99.90;;;;;;7285509;32;20472;-54
2023/05/01 03:25:00;;;;;;;3.85;2.10;;;7.30;99.90;;;;;;7293864;32;20492;-54
2023/05/01 03:29:02;;;;;;;3.58;2.00;;;7.40;99.90;;;;;;7304901;32;20129;-55
2023/05/01 03:33:04;;;;;;;4.10;2.28;;;7.40;99.90;;;;;;7297009;32;20127;-55
2023/05/01 03:37:06;;;;;;;4.43;2.20;;;7.60;99.90;;;;;;7294742;32;20303;-54
2023/05/01 03:41:08;;;;;;;5.03;2.20;;;7.70;99.90;;;;;;7306474;32;20190;-55
2023/05/01 03:45:10;;;;;;;7.00;2.10;;;7.80;99.90;;;;;;7300422;32;20222;-55
2023/05/01 03:49:12;;;;;;;5.85;2.22;;;7.90;99.90;;;;;;7302136;32;20134;-56
2023/05/01 03:53:14;;;;;;;3.03;2.08;;;8.00;99.90;;;;;;7302303;32;20096;-55
2023/05/01 03:57:15;;;;;;;4.80;2.17;;;8.10;99.90;;;;;;7301144;32;20213;-55
2023/05/01 04:01:18;;;;;;;3.10;2.10;;;8.20;99.90;;;;;;7286648;32;20169;-55
2023/05/01 04:05:20;;;;;;;4.93;2.20;;;8.20;99.90;;;;;;7297723;32;20566;-54
2023/05/01 04:09:23;;;;;;;2.87;1.80;;;8.30;99.90;;;;;;7297526;32;20314;-55
2023/05/01 04:13:24;;;;;;;5.07;2.03;;;8.30;99.90;;;;;;7298456;32;20104;-55
2023/05/01 04:17:27;;;;;;;3.15;2.47;;;8.30;99.90;;;;;;7307633;32;20260;-55
2023/05/01 04:21:29;;;;;;;3.70;1.90;;;8.20;99.90;;;;;;7296991;32;20111;-55
2023/05/01 04:25:30;;;;;;;6.28;2.28;;;8.20;99.90;;;;;;7306751;32;20214;-56
2023/05/01 04:29:32;;;;;;;4.70;1.75;;;8.20;99.90;;;;;;7299396;32;20184;-55
2023/05/01 04:33:34;;;;;;;3.37;2.20;;;8.20;99.90;;;;;;7299536;32;20133;-54
2023/05/01 04:37:36;;;;;;;4.47;1.90;;;8.10;99.90;;;;;;7302440;32;20442;-55
2023/05/01 04:41:37;;;;;;;2.72;1.75;;;8.20;99.90;;;;;;7308188;32;20168;-55
2023/05/01 04:45:39;;;;;;;3.33;1.70;;;8.30;99.90;;;;;;7298745;32;20142;-54
2023/05/01 04:49:41;;;;;;;5.35;1.90;;;8.30;99.90;;;;;;7301465;32;20575;-54
2023/05/01 04:53:43;;;;;;;5.82;2.10;;;8.40;99.90;;;;;;7304812;32;20136;-55
2023/05/01 04:57:45;;;;;;;5.50;2.00;;;8.50;99.90;;;;;;7317079;32;20127;-54
2023/05/01 05:01:46;;;;;;;3.25;1.67;;;8.60;99.90;;;;;;7312428;32;20136;-55
2023/05/01 05:05:48;;;;;;;4.10;1.80;;;8.70;99.90;;;;;;7315469;32;20130;-55
2023/05/01 05:09:51;;;;;;;3.12;1.80;;;8.80;99.90;;;;;;7312597;32;20766;-54
2023/05/01 05:13:53;;;;;;;3.10;1.52;;;9.00;99.90;;;;;;7307574;32;20423;-55
2023/05/01 05:17:55;;;;;;;3.67;1.87;;;9.20;99.90;;;;;;7308768;32;20753;-55
2023/05/01 05:21:57;;;;;;;5.18;2.15;;;9.40;99.90;;;;;;7306580;32;20246;-55
2023/05/01 05:26:00;;;;;;;3.70;1.50;;;9.60;99.90;;;;;;7303439;32;20356;-57
2023/05/01 05:30:05;;;;;;;4.55;1.75;;;9.80;99.90;;;;;;7304339;32;20214;-56
2023/05/01 05:34:07;;;;;;;2.78;1.55;;;10.00;99.90;;;;;;7305684;32;20460;-56
2023/05/01 05:38:09;;;;;;;3.33;1.55;;;10.30;99.90;;;;;;7300249;32;20146;-57
2023/05/01 05:42:10;;;;;;;5.37;1.60;;;10.50;99.90;;;;;;7304073;32;20118;-56
2023/05/01 05:46:12;;;;;;;3.50;1.35;;;10.60;99.90;;;;;;7310163;32;20401;-56
2023/05/01 05:50:14;;;;;;;3.37;1.60;;;10.80;99.90;;;;;;7301085;32;20104;-56
2023/05/01 05:54:16;;;;;;;3.20;1.40;;;11.10;99.90;;;;;;7305284;32;20245;-56
2023/05/01 05:58:22;;;;;;;5.80;1.60;;;11.30;99.90;;;;;;7302186;32;20252;-57
2023/05/01 06:02:24;;;;;;;4.50;1.42;;;11.50;99.90;;;;;;7305895;32;20150;-56
2023/05/01 06:06:26;;;;;;;4.32;1.33;;;11.70;99.90;;;;;;7304201;32;20214;-56
2023/05/01 06:10:28;;;;;;;3.55;1.50;;;12.00;99.90;;;;;;7286860;32;20126;-56
2023/05/01 06:14:30;;;;;;;3.30;1.92;;;12.30;99.90;;;;;;7308079;32;20335;-56
2023/05/01 06:18:31;;;;;;;2.45;1.55;;;12.40;99.90;;;;;;7305502;32;20235;-56
2023/05/01 06:22:33;;;;;;;3.50;1.65;;;12.60;99.90;;;;;;7300174;32;20095;-54
2023/05/01 06:26:35;;;;;;;4.70;1.83;;;12.80;99.90;;;;;;7306667;32;20134;-55
2023/05/01 06:30:36;;;;;;;4.55;1.50;;;13.00;99.90;;;;;;7297969;32;20108;-54
2023/05/01 06:34:38;;;;;;;5.45;1.50;;;13.20;99.90;;;;;;7315715;32;20215;-56
2023/05/01 06:38:43;;;;;;;3.10;1.50;;;13.40;99.90;;;;;;7315934;32;20195;-56
2023/05/01 06:42:45;;;;;;;3.42;1.65;;;13.50;99.90;;;;;;7320846;32;20112;-57
2023/05/01 06:46:47;;;;;;;3.47;1.25;;;13.70;99.90;;;;;;7306307;32;20121;-56
2023/05/01 06:50:48;;;;;;;4.35;1.60;;;13.80;99.90;;;;;;7304013;32;20206;-56
2023/05/01 06:54:50;;;;;;;2.92;1.60;;;13.90;99.90;;;;;;7305494;32;20977;-54
2023/05/01 06:58:52;;;;;;;3.12;1.20;;;14.00;99.90;;;;;;7306391;32;20134;-54
2023/05/01 07:02:55;;;;;;;4.43;1.40;;;14.10;99.90;;;;;;7304755;32;20182;-55
2023/05/01 07:06:57;;;;;;;5.45;1.42;;;14.20;99.90;;;;;;7303139;32;20478;-54
2023/05/01 07:10:59;;;;;;;6.47;2.50;;;14.40;99.90;;;;;;7303416;32;20209;-55
2023/05/01 07:15:01;;;;;;;2.87;1.20;;;14.50;99.90;;;;;;7304547;32;20228;-55
2023/05/01 07:19:03;;;;;;;4.57;1.85;;;14.50;99.90;;;;;;7297363;32;20476;-55
2023/05/01 07:23:05;;;;;;;3.62;1.55;;;14.50;99.90;;;;;;7305391;32;20269;-56
2023/05/01 07:27:08;;;;;;;4.57;1.55;;;14.60;99.90;;;;;;7302218;32;20096;-55
2023/05/01 07:31:10;;;;;;;5.53;1.50;;;14.70;99.90;;;;;;7311074;32;21127;-55
2023/05/01 07:35:12;;;;;;;3.85;1.80;;;14.80;99.90;;;;;;7304468;32;20103;-55
2023/05/01 07:39:14;;;;;;;4.03;1.42;;;14.80;99.90;;;;;;7323755;32;20175;-56
2023/05/01 07:43:15;;;;;;;3.85;1.45;;;14.80;99.90;;;;;;7325395;32;20170;-55
2023/05/01 07:47:17;;;;;;;4.22;1.70;;;14.80;99.90;;;;;;7313493;32;20129;-56
2023/05/01 07:51:19;;;;;;;3.12;1.30;;;14.90;99.90;;;;;;7306589;32;20245;-56
2023/05/01 07:55:24;;;;;;;4.20;1.60;;;15.00;99.90;;;;;;7315423;32;20108;-56
2023/05/01 07:59:25;;;;;;;4.65;1.45;;;15.20;99.90;;;;;;7313089;32;20095;-56
2023/05/01 08:03:28;;;;;;;2.83;1.50;;;15.30;99.90;;;;;;7310162;32;20126;-56
2023/05/01 08:07:30;;;;;;;3.97;1.37;;;15.50;99.90;;;;;;7314674;32;20642;-56
2023/05/01 08:11:33;;;;;;;3.50;1.35;;;15.60;99.90;;;;;;7313469;32;20122;-56
2023/05/01 08:15:37;;;;;;;4.35;1.58;;;15.90;99.90;;;;;;7308782;32;20190;-56
2023/05/01 08:19:39;;;;;;;4.10;1.60;;;16.30;99.90;;;;;;7311108;32;20151;-56
2023/05/01 08:23:41;;;;;;;3.92;1.35;;;16.60;99.90;;;;;;7308203;32;20198;-62
2023/05/01 08:27:43;;;;;;;3.25;1.48;;;16.80;99.90;;;;;;7303496;32;20122;-63
2023/05/01 08:31:44;;;;;;;3.83;1.40;;;17.00;99.90;;;;;;7303079;32;20097;-62
2023/05/01 08:35:47;;;;;;;4.60;1.42;;;17.40;99.90;;;;;;7307045;32;20314;-62
2023/05/01 08:39:49;;;;;;;3.67;1.40;;;17.50;99.90;;;;;;7297456;32;20103;-56
2023/05/01 08:43:50;;;;;;;5.62;1.60;;;17.70;99.90;;;;;;7295220;32;20294;-56
2023/05/01 08:47:54;;;;;;;4.45;1.77;;;17.70;99.90;;;;;;7308306;32;20112;-56
2023/05/01 08:51:57;;;;;;;5.18;1.80;;;18.10;99.90;;;;;;7316450;32;20095;-56
2023/05/01 08:55:59;;;;;;;2.87;1.50;;;18.80;99.90;;;;;;7311305;32;20461;-56
2023/05/01 09:00:04;;;;;;;5.00;1.65;;;19.60;99.90;;;;;;7310144;32;20282;-56
2023/05/01 09:04:08;;;;;;;4.53;1.70;;;19.90;99.00;;;;;;7301694;32;20103;-58
2023/05/01 09:08:10;;;;;;;4.55;1.67;;;20.30;97.60;;;;;;7298985;32;20120;-59
2023/05/01 09:12:22;;;;;;;3.12;1.40;;;21.50;95.00;;;;;;7305516;32;20927;-58
2023/05/01 09:16:23;;;;;;;2.62;1.48;;;22.20;91.20;;;;;;7315130;32;20099;-56
2023/05/01 09:20:26;;;;;;;3.30;1.48;;;22.70;86.30;;;;;;7300650;32;20194;-57
2023/05/01 09:24:27;;;;;;;4.15;1.48;;;22.90;90.60;;;;;;7307297;32;20706;-56
2023/05/01 09:28:45;;;;;;;4.12;1.85;;;22.50;83.90;;;;;;7306469;32;20217;-56
2023/05/01 09:33:14;;;;;;;3.40;1.48;;;22.40;82.50;;;;;;7302382;32;20097;-55
2023/05/01 09:37:26;;;;;;;4.12;1.80;;;22.60;81.10;;;;;;7304257;32;20108;-55
2023/05/01 09:41:30;;;;;;;2.50;1.30;;;23.00;85.30;;;;;;7312123;32;21048;-55
2023/05/01 09:45:32;;;;;;;2.53;1.25;;;22.80;78.40;;;;;;7308889;32;20121;-54
2023/05/01 09:49:55;;;;;;;3.15;1.40;;;22.70;81.20;;;;;;7306760;32;20865;-55
2023/05/01 09:53:58;;;;;;;3.12;1.50;;;22.90;82.70;;;;;;7306428;32;20104;-55
2023/05/01 09:58:00;;;;;;;3.55;1.50;;;22.60;81.90;;;;;;7311760;32;20135;-55
2023/05/01 10:02:02;;;;;;;5.53;1.70;;;22.40;81.90;;;;;;7310874;32;20108;-55
2023/05/01 10:06:04;;;;;;;4.35;1.62;;;21.60;80.20;;;;;;7316901;32;20230;-55
2023/05/01 10:10:20;;;;;;;4.68;1.27;;;21.70;81.30;;;;;;7304963;32;20541;-55
2023/05/01 10:14:23;;;;;;;3.62;1.30;;;22.00;84.40;;;;;;7297255;32;20215;-57
2023/05/01 10:18:26;;;;;;;3.08;1.67;;;22.20;78.60;;;;;;7306384;32;20213;-57
2023/05/01 10:22:28;;;;;;;2.50;1.27;;;22.30;80.30;;;;;;7306571;32;20588;-57
2023/05/01 10:26:32;;;;;;;2.95;1.42;;;22.00;80.80;;;;;;7307109;32;20839;-57
2023/05/01 10:30:35;;;;;;;2.72;1.40;;;21.70;79.40;;;;;;7307804;32;20136;-57
2023/05/01 10:34:44;;;;;;;3.75;1.30;;;21.60;82.70;;;;;;7306577;32;20115;-56
2023/05/01 10:38:47;;;;;;;2.53;1.35;;;21.70;84.70;;;;;;7308639;32;20332;-56
2023/05/01 10:43:24;;;;;;;3.70;1.40;;;21.80;82.40;;;;;;7307168;32;20469;-56
2023/05/01 10:47:27;;;;;;;3.37;1.40;;;22.20;84.60;;;;;;7305023;32;20242;-57
2023/05/01 10:51:29;;;;;;;2.75;1.50;;;22.50;81.20;;;;;;7301036;32;20240;-57
2023/05/01 10:55:35;;;;;;;4.25;1.98;;;22.10;81.30;;;;;;7306659;32;20108;-56
2023/05/01 10:59:59;;;;;;;2.77;1.60;;;22.40;77.60;;;;;;7303676;32;20096;-56
2023/05/01 11:04:23;;;;;;;4.28;1.52;;;22.30;80.10;;;;;;7302604;32;20096;-56
2023/05/01 11:08:29;;;;;;;2.22;1.30;;;22.60;79.30;;;;;;7302904;32;20510;-56
2023/05/01 11:12:49;;;;;;;3.67;1.70;;;22.50;76.90;;;;;;7305862;32;20702;-55
2023/05/01 11:16:52;;;;;;;2.97;1.50;;;22.60;74.50;;;;;;7302754;32;20292;-57
2023/05/01 11:20:53;;;;;;;3.42;1.50;;;22.50;75.00;;;;;;7314590;32;20453;-57
2023/05/01 11:24:55;;;;;;;1.80;1.15;;;22.60;76.10;;;;;;7301466;32;20126;-57
2023/05/01 11:29:01;;;;;;;2.15;1.30;;;22.50;74.20;;;;;;7315213;32;20099;-57
2023/05/01 11:33:04;;;;;;;2.10;1.08;;;22.60;75.60;;;;;;7306895;32;20261;-56
2023/05/01 11:37:06;;;;;;;3.03;1.30;;;22.90;68.80;;;;;;7317105;32;20168;-57
2023/05/01 11:41:08;;;;;;;3.10;1.52;;;23.10;73.20;;;;;;7309514;32;20301;-57
2023/05/01 11:45:10;;;;;;;2.40;1.67;;;23.00;73.20;;;;;;7304727;32;20135;-57
2023/05/01 11:49:12;;;;;;;3.10;1.40;;;23.70;75.40;;;;;;7307385;32;20187;-57
2023/05/01 11:53:14;;;;;;;2.45;1.12;;;24.40;70.10;;;;;;7316570;32;20331;-57
2023/05/01 11:57:18;;;;;;;1.95;1.30;;;24.60;69.40;;;;;;7314221;32;20199;-58
2023/05/01 12:01:20;;;;;;;2.22;1.40;;;24.40;68.30;;;;;;7304578;32;20255;-61
2023/05/01 12:05:23;;;;;;;2.03;1.05;;;24.40;68.80;;;;;;7333075;32;20648;-58
2023/05/01 12:09:26;;;;;;;2.15;1.30;;;24.90;70.40;;;;;;7305778;32;20776;-56
2023/05/01 12:13:28;;;;;;;2.03;1.08;;;25.20;64.50;;;;;;7308619;32;20338;-56
2023/05/01 12:17:30;;;;;;;2.12;1.10;;;24.30;64.80;;;;;;7302796;32;20171;-56
2023/05/01 12:21:32;;;;;;;2.50;1.02;;;23.60;64.30;;;;;;7310490;32;20103;-56
2023/05/01 12:25:35;;;;;;;2.10;1.15;;;22.50;70.80;;;;;;7307015;32;20252;-56
2023/05/01 12:29:41;;;;;;;1.52;1.23;;;22.20;69.70;;;;;;7313590;32;20215;-58
2023/05/01 12:33:55;;;;;;;0.90;0.80;;;22.70;70.90;;;;;;7313816;32;20214;-58
2023/05/01 12:37:58;;;;;;;1.75;1.30;;;22.10;68.50;;;;;;7306845;32;20525;-57
2023/05/01 12:42:00;;;;;;;1.58;1.12;;;21.70;73.10;;;;;;7305067;32;20150;-57
2023/05/01 12:46:03;;;;;;;2.20;1.00;;;21.40;77.30;;;;;;7299541;32;20191;-58
2023/05/01 12:50:06;;;;;;;3.22;1.02;;;21.30;81.60;;;;;;7302006;32;20122;-57
2023/05/01 12:54:08;;;;;;;2.42;1.50;;;20.90;74.30;;;;;;7298615;32;20344;-56
2023/05/01 12:58:10;;;;;;;3.92;1.70;;;20.70;73.60;;;;;;7302660;32;20119;-57
2023/05/01 13:02:14;;;;;;;6.12;2.00;;;20.20;76.10;;;;;;7309932;32;20197;-58
2023/05/01 13:06:16;;;;;;;2.67;1.30;;;20.00;81.90;;;;;;7303934;32;20128;-57
2023/05/01 13:10:31;;;;;;;2.15;1.40;;;19.80;80.00;;;;;;7304037;32;20183;-57
2023/05/01 13:14:40;;;;;;;3.17;1.30;;;19.50;80.50;;;;;;7303870;32;20149;-56
2023/05/01 13:18:43;;;;;;;3.70;1.50;;;19.30;82.70;;;;;;7303104;32;20195;-56
2023/05/01 13:22:46;;;;;;;6.37;1.83;;;19.20;86.80;;;;;;7303395;32;20905;-57
2023/05/01 13:26:58;;;;;;;2.03;1.35;;;19.10;90.80;;;;;;7314977;32;20268;-57
2023/05/01 13:30:59;;;;;;;2.35;1.30;;;18.90;90.10;;;;;;7311046;32;20443;-55
2023/05/01 13:35:01;;;;;;;2.10;1.17;;;18.50;88.20;;;;;;7310863;32;20217;-57
2023/05/01 13:39:03;;;;;;;3.25;1.15;;;18.30;85.60;;;;;;7305780;32;20610;-56
2023/05/01 13:43:13;;;;;;;1.37;0.85;;;18.20;82.40;;;;;;7307993;32;20495;-58
2023/05/01 13:47:16;;;;;;;1.87;0.90;;;18.10;79.00;;;;;;7311708;32;20107;-56
2023/05/01 13:51:23;;;;;;;1.85;0.90;;;18.20;79.00;;;;;;7313203;32;20808;-57
2023/05/01 13:55:25;;;;;;;1.93;0.90;;;18.10;78.90;;;;;;7317982;32;20745;-56
2023/05/01 13:59:38;;;;;;;1.87;1.12;;;18.20;82.90;;;;;;7311016;32;20422;-56
2023/05/01 14:03:41;;;;;;;1.10;0.95;;;18.20;88.90;;;;;;7309389;32;20136;-56
2023/05/01 14:07:57;;;;;;;2.20;1.02;;;18.10;87.10;;;;;;7306867;32;20093;-57
2023/05/01 14:11:59;;;;;;;1.27;1.00;;;18.10;86.70;;;;;;7307745;32;20213;-57
2023/05/01 14:16:06;;;;;;;1.73;1.02;;;18.10;85.20;;;;;;7312390;32;20206;-56
2023/05/01 14:20:08;;;;;;;1.48;0.88;;;18.10;87.00;;;;;;7303657;32;20188;-56
2023/05/01 14:24:10;;;;;;;0.80;0.70;;;18.10;86.40;;;;;;7312135;32;20603;-57
2023/05/01 14:28:12;;;;;;;1.85;1.10;;;18.10;88.90;;;;;;7310388;32;20100;-57
2023/05/01 14:32:15;;;;;;;2.05;1.05;;;18.20;92.60;;;;;;7311322;32;20191;-56
2023/05/01 14:36:17;;;;;;;1.85;1.00;;;18.40;91.20;;;;;;7304927;32;20700;-57
2023/05/01 14:40:26;;;;;;;2.15;0.85;;;18.60;84.90;;;;;;7308282;32;20202;-57
2023/05/01 14:44:27;;;;;;;3.95;1.60;;;18.70;86.80;;;;;;7305963;32;20225;-56
2023/05/01 14:48:34;;;;;;;3.92;1.55;;;18.60;90.50;;;;;;7308705;32;20268;-56
2023/05/01 14:52:38;;;;;;;5.68;2.00;;;18.30;90.60;;;;;;7310793;32;20642;-56
2023/05/01 14:56:41;;;;;;;4.35;1.83;;;17.60;92.70;;;;;;7314770;32;20131;-57
2023/05/01 15:00:43;;;;;;;3.10;1.67;;;17.50;93.70;;;;;;7304118;32;20207;-57
2023/05/01 15:04:45;;;;;;;3.37;1.85;;;17.40;95.20;;;;;;7317943;32;20490;-57
2023/05/01 15:08:46;;;;;;;4.75;1.62;;;17.30;95.60;;;;;;7306564;32;20219;-56
2023/05/01 15:12:50;;;;;;;2.75;1.80;;;17.40;96.00;;;;;;7306805;32;20175;-56
2023/05/01 15:16:51;;;;;;;4.72;1.92;;;17.30;96.50;;;;;;7303201;32;20108;-57
2023/05/01 15:20:54;;;;;;;7.03;2.28;;;17.20;96.40;;;;;;7307808;32;20191;-56
2023/05/01 15:24:56;;;;;;;4.78;3.53;;;17.20;98.00;;;;;;7296562;32;20558;-56
2023/05/01 15:28:58;;;;;;;3.20;2.67;;;17.10;99.90;;;;;;7303500;32;20702;-57
2023/05/01 15:33:00;;;;;;;4.20;3.05;;;17.00;99.90;;;;;;7300690;32;20118;-57
2023/05/01 15:37:02;;;;;;;5.53;2.67;;;16.80;99.90;;;;;;7313631;32;20255;-58
2023/05/01 15:41:04;;;;;;;4.80;2.62;;;16.60;99.90;;;;;;7313037;32;20108;-57
2023/05/01 15:45:06;;;;;;;5.53;2.35;;;16.60;99.90;;;;;;7323182;32;20125;-56
2023/05/01 15:49:09;;;;;;;5.07;2.08;;;16.40;99.90;;;;;;7322323;32;20152;-56
2023/05/01 15:53:10;;;;;;;7.78;2.12;;;16.30;99.90;;;;;;7326312;32;20103;-56
2023/05/01 15:57:13;;;;;;;5.25;1.92;;;16.30;99.90;;;;;;7317586;32;20233;-57
2023/05/01 16:01:15;;;;;;;2.45;1.70;;;16.20;99.90;;;;;;7331807;32;20157;-55
2023/05/01 16:05:20;;;;;;;3.42;1.87;;;16.20;99.90;;;;;;7332986;32;20502;-57
2023/05/01 16:09:29;;;;;;;4.30;1.77;;;16.10;99.90;;;;;;7329274;32;20174;-58
2023/05/01 16:13:36;;;;;;;3.05;1.92;;;15.80;99.90;;;;;;7299706;32;20272;-56
2023/05/01 16:17:42;;;;;;;2.33;1.62;;;15.70;99.90;;;;;;7304259;32;20218;-57
2023/05/01 16:21:45;;;;;;;2.78;1.60;;;15.50;99.90;;;;;;7310280;32;20341;-56
2023/05/01 16:25:46;;;;;;;4.87;1.70;;;15.50;99.90;;;;;;7299889;32;20123;-56
2023/05/01 16:29:48;;;;;;;3.28;1.37;;;15.40;99.90;;;;;;7307241;32;20680;-59
2023/05/01 16:33:52;;;;;;;2.75;1.50;;;15.40;99.90;;;;;;7308283;32;20104;-59
2023/05/01 16:37:58;;;;;;;2.70;1.90;;;15.40;99.90;;;;;;7301759;32;20191;-56
2023/05/01 16:42:00;;;;;;;3.40;2.07;;;15.50;99.90;;;;;;7306015;32;20166;-56
2023/05/01 16:46:02;;;;;;;5.12;1.87;;;15.60;99.90;;;;;;7303217;32;20170;-57
2023/05/01 16:50:08;;;;;;;4.07;1.87;;;15.80;99.90;;;;;;7304140;32;20100;-56
2023/05/01 16:54:10;;;;;;;5.72;2.95;;;15.80;99.90;;;;;;7312186;32;20194;-56
2023/05/01 16:58:11;;;;;;;7.03;2.53;;;15.70;99.90;;;;;;7308396;32;20108;-56
2023/05/01 17:02:13;;;;;;;14.45;11.35;;;15.60;99.90;;;;;;7311458;32;20099;-57
2023/05/01 17:06:15;;;;;;;4.05;2.70;;;15.50;99.90;;;;;;7306649;32;20841;-59
2023/05/01 17:10:17;;;;;;;6.50;2.55;;;15.80;99.90;;;;;;7306574;32;20887;-57
2023/05/01 17:14:19;;;;;;;3.97;2.05;;;15.80;99.90;;;;;;7323195;32;20180;-56
2023/05/01 17:18:21;;;;;;;3.80;1.70;;;15.80;99.90;;;;;;7308880;32;20518;-57
2023/05/01 17:22:22;;;;;;;3.35;1.62;;;15.80;99.90;;;;;;7310676;32;20214;-57
2023/05/01 17:26:24;;;;;;;2.83;1.55;;;15.70;99.90;;;;;;7305574;32;20699;-57
2023/05/01 17:30:26;;;;;;;3.37;1.50;;;15.80;99.90;;;;;;7310801;32;20179;-57
2023/05/01 17:34:27;;;;;;;2.50;1.70;;;15.70;99.90;;;;;;7305653;32;20095;-57
2023/05/01 17:38:29;;;;;;;2.28;1.48;;;15.80;99.90;;;;;;7309208;32;20205;-57
2023/05/01 17:42:31;;;;;;;2.80;1.27;;;15.90;99.90;;;;;;7302059;32;20112;-58
2023/05/01 17:46:32;;;;;;;3.83;1.50;;;15.80;99.90;;;;;;7309166;32;20333;-57
2023/05/01 17:50:34;;;;;;;3.70;1.95;;;15.70;99.90;;;;;;7308015;32;20087;-56
2023/05/01 17:54:37;;;;;;;8.90;3.75;;;15.60;99.90;;;;;;7306861;32;20656;-57
2023/05/01 17:58:39;;;;;;;2.40;1.60;;;15.30;99.90;;;;;;7303046;32;20183;-58
2023/05/01 18:02:43;;;;;;;3.17;1.40;;;15.30;99.90;;;;;;7305998;32;20323;-58
2023/05/01 18:06:45;;;;;;;2.58;1.50;;;15.10;99.90;;;;;;7305632;32;20176;-58
2023/05/01 18:10:47;;;;;;;3.33;1.75;;;15.00;99.90;;;;;;7308112;32;20124;-57
2023/05/01 18:14:50;;;;;;;2.70;1.60;;;15.00;99.90;;;;;;7305836;32;20131;-57
2023/05/01 18:18:52;;;;;;;3.05;2.00;;;15.20;99.90;;;;;;7304732;32;20134;-59
2023/05/01 18:22:54;;;;;;;3.75;1.85;;;15.00;99.90;;;;;;7305627;32;20125;-58
2023/05/01 18:26:56;;;;;;;2.33;1.65;;;15.00;99.90;;;;;;7311350;32;20216;-58
2023/05/01 18:30:58;;;;;;;2.00;1.60;;;14.90;99.90;;;;;;7305741;32;20542;-54
2023/05/01 18:35:01;;;;;;;1.83;1.62;;;14.60;99.90;;;;;;7310983;32;20248;-55
2023/05/01 18:39:03;;;;;;;2.72;2.00;;;14.50;99.90;;;;;;7305637;32;21652;-55
2023/05/01 18:43:11;;;;;;;2.72;2.15;;;14.30;99.90;;;;;;7312970;32;20134;-55
2023/05/01 18:47:12;;;;;;;3.95;2.33;;;14.20;99.90;;;;;;7312602;32;20324;-55
2023/05/01 18:51:14;;;;;;;2.60;2.40;;;14.00;99.90;;;;;;7305767;32;20253;-54
2023/05/01 18:55:16;;;;;;;2.95;2.42;;;13.90;99.90;;;;;;7306755;32;20210;-56
2023/05/01 18:59:18;;;;;;;3.22;2.90;;;13.70;99.90;;;;;;7303525;32;20122;-55
2023/05/01 19:03:19;;;;;;;3.95;2.80;;;13.60;99.90;;;;;;7305851;32;20267;-56
2023/05/01 19:07:21;;;;;;;4.68;3.20;;;13.40;99.90;;;;;;7294663;32;20687;-55
2023/05/01 19:11:25;;;;;;;5.18;3.55;;;13.30;99.90;;;;;;7300902;32;20389;-55
2023/05/01 19:15:26;;;;;;;7.20;4.53;;;13.10;99.90;;;;;;7299556;32;20325;-55
2023/05/01 19:19:28;;;;;;;4.35;3.95;;;13.10;99.90;;;;;;7303838;32;20562;-55
2023/05/01 19:23:33;;;;;;;5.72;4.87;;;13.00;99.90;;;;;;7306594;32;20673;-54
2023/05/01 19:27:36;;;;;;;6.15;4.80;;;13.00;99.90;;;;;;7303520;32;20099;-55
2023/05/01 19:31:40;;;;;;;5.78;4.85;;;13.00;99.90;;;;;;7302322;32;20251;-54
2023/05/01 19:35:42;;;;;;;7.10;4.97;;;12.90;99.90;;;;;;7304689;32;20237;-56
2023/05/01 19:39:44;;;;;;;5.40;4.05;;;12.80;99.90;;;;;;7306221;32;20183;-54
2023/05/01 19:43:46;;;;;;;6.35;5.57;;;12.60;99.90;;;;;;7307362;32;20141;-55
2023/05/01 19:47:47;;;;;;;5.72;5.00;;;12.50;99.90;;;;;;7310303;32;20118;-54
2023/05/01 19:51:49;;;;;;;6.07;4.37;;;12.30;99.90;;;;;;7301350;32;20108;-54
2023/05/01 19:55:51;;;;;;;7.10;5.05;;;12.30;99.90;;;;;;7302249;32;20256;-54
2023/05/01 19:59:54;;;;;;;8.13;6.28;;;12.30;99.90;;;;;;7301514;32;20199;-55
2023/05/01 20:03:56;;;;;;;7.00;6.25;;;12.50;99.90;;;;;;7305750;32;20337;-55
2023/05/01 20:07:59;;;;;;;7.57;6.78;;;12.50;99.90;;;;;;7311294;32;20479;-55
2023/05/01 20:12:02;;;;;;;9.13;7.10;;;12.50;99.90;;;;;;7299763;32;20108;-56
2023/05/01 20:16:04;;;;;;;11.48;7.32;;;12.50;99.90;;;;;;7307561;32;20162;-55
2023/05/01 20:20:06;;;;;;;8.23;7.43;;;12.40;99.90;;;;;;7302015;32;20445;-54
2023/05/01 20:24:09;;;;;;;9.07;7.28;;;12.40;99.90;;;;;;7305427;32;20108;-55
2023/05/01 20:28:13;;;;;;;9.60;8.15;;;12.30;99.90;;;;;;7297526;32;20230;-54
2023/05/01 20:32:16;;;;;;;10.75;8.00;;;12.20;99.90;;;;;;7305540;32;20156;-54
2023/05/01 20:36:19;;;;;;;9.95;9.00;;;12.20;99.90;;;;;;7306664;32;20808;-55
2023/05/01 20:40:21;;;;;;;10.65;8.88;;;12.10;99.90;;;;;;7301463;32;20104;-54
2023/05/01 20:44:22;;;;;;;9.48;8.48;;;12.00;99.90;;;;;;7306304;32;20262;-54
2023/05/01 20:48:24;;;;;;;10.20;9.13;;;12.00;99.90;;;;;;7304959;32;20131;-55
2023/05/01 20:52:26;;;;;;;9.82;8.82;;;12.00;99.90;;;;;;7300581;32;20250;-55
2023/05/01 20:56:28;;;;;;;9.98;8.68;;;11.80;99.90;;;;;;7305331;32;20122;-54
2023/05/01 21:00:30;;;;;;;9.68;8.68;;;11.70;99.90;;;;;;7307045;32;20463;-54
2023/05/01 21:04:31;;;;;;;9.98;8.55;;;11.50;99.90;;;;;;7300618;32;20477;-55
2023/05/01 21:08:33;;;;;;;8.15;7.35;;;11.40;99.90;;;;;;7304730;32;20287;-55
2023/05/01 21:12:36;;;;;;;8.02;6.50;;;11.10;99.90;;;;;;7299395;32;20123;-55